sensor_id;sensor_type;location;lat;lon;timestamp;pressure;altitude;pressure_sealevel;temperature;humidity
49072;BME280;52656;52.610;10.236;2023-06-22T00:00:53;101425.00;;;21.43;57.19
49072;BME280;52656;52.610;10.236;2023-06-22T00:03:19;101413.69;;;21.38;57.39
49072;BME280;52656;52.610;10.236;2023-06-22T00:05:46;101408.22;;;21.40;57.30
49072;BME280;52656;52.610;10.236;2023-06-22T00:08:11;101420.53;;;21.31;57.56
49072;BME280;52656;52.610;10.236;2023-06-22T00:10:37;101410.09;;;21.26;57.56
49072;BME280;52656;52.610;10.236;2023-06-22T00:13:02;101414.00;;;21.22;57.69
49072;BME280;52656;52.610;10.236;2023-06-22T00:15:27;101412.16;;;21.23;57.48
49072;BME280;52656;52.610;10.236;2023-06-22T00:17:53;101416.56;;;21.24;57.22
49072;BME280;52656;52.610;10.236;2023-06-22T00:20:19;101413.13;;;21.22;57.44
49072;BME280;52656;52.610;10.236;2023-06-22T00:22:44;101406.00;;;21.21;57.37
49072;BME280;52656;52.610;10.236;2023-06-22T00:25:10;101408.09;;;21.17;57.57
49072;BME280;52656;52.610;10.236;2023-06-22T00:27:36;101410.28;;;21.12;57.99
49072;BME280;52656;52.610;10.236;2023-06-22T00:30:02;101418.09;;;21.15;57.68
49072;BME280;52656;52.610;10.236;2023-06-22T00:32:27;101413.69;;;21.14;57.71
49072;BME280;52656;52.610;10.236;2023-06-22T00:34:53;101423.09;;;21.09;57.92
49072;BME280;52656;52.610;10.236;2023-06-22T00:37:18;101426.56;;;20.98;58.13
49072;BME280;52656;52.610;10.236;2023-06-22T00:39:43;101431.53;;;20.91;58.50
49072;BME280;52656;52.610;10.236;2023-06-22T00:42:09;101425.72;;;20.85;58.70
49072;BME280;52656;52.610;10.236;2023-06-22T00:44:35;101429.69;;;20.79;58.71
49072;BME280;52656;52.610;10.236;2023-06-22T00:47:00;101430.34;;;20.70;59.02
49072;BME280;52656;52.610;10.236;2023-06-22T00:49:26;101434.47;;;20.63;59.40
49072;BME280;52656;52.610;10.236;2023-06-22T00:51:52;101430.69;;;20.52;59.93
49072;BME280;52656;52.610;10.236;2023-06-22T00:54:17;101434.88;;;20.57;59.83
49072;BME280;52656;52.610;10.236;2023-06-22T00:56:53;101432.00;;;20.47;60.13
49072;BME280;52656;52.610;10.236;2023-06-22T00:59:21;101438.13;;;20.36;60.25
49072;BME280;52656;52.610;10.236;2023-06-22T01:01:46;101440.28;;;20.31;60.54
49072;BME280;52656;52.610;10.236;2023-06-22T01:04:12;101431.88;;;20.23;60.88
49072;BME280;52656;52.610;10.236;2023-06-22T01:06:45;101431.44;;;20.16;61.26
49072;BME280;52656;52.610;10.236;2023-06-22T01:09:27;101436.72;;;20.18;61.17
49072;BME280;52656;52.610;10.236;2023-06-22T01:12:02;101436.59;;;20.19;60.73
49072;BME280;52656;52.610;10.236;2023-06-22T01:14:39;101429.19;;;20.23;60.79
49072;BME280;52656;52.610;10.236;2023-06-22T01:17:08;101426.72;;;20.20;60.66
49072;BME280;52656;52.610;10.236;2023-06-22T01:19:49;101417.56;;;20.22;60.59
49072;BME280;52656;52.610;10.236;2023-06-22T01:22:19;101409.72;;;20.19;60.79
49072;BME280;52656;52.610;10.236;2023-06-22T01:24:57;101407.88;;;20.20;60.91
49072;BME280;52656;52.610;10.236;2023-06-22T01:27:47;101403.22;;;20.09;61.57
49072;BME280;52656;52.610;10.236;2023-06-22T01:30:16;101396.88;;;20.10;61.28
49072;BME280;52656;52.610;10.236;2023-06-22T01:32:42;101400.63;;;19.95;62.30
49072;BME280;52656;52.610;10.236;2023-06-22T01:35:09;101400.63;;;19.95;62.56
49072;BME280;52656;52.610;10.236;2023-06-22T01:37:36;101404.50;;;19.91;62.43
49072;BME280;52656;52.610;10.236;2023-06-22T01:40:04;101400.50;;;19.84;62.69
49072;BME280;52656;52.610;10.236;2023-06-22T01:42:31;101401.78;;;19.78;62.94
49072;BME280;52656;52.610;10.236;2023-06-22T01:44:58;101400.56;;;19.69;63.63
49072;BME280;52656;52.610;10.236;2023-06-22T01:47:24;101387.25;;;19.68;63.24
49072;BME280;52656;52.610;10.236;2023-06-22T01:49:50;101380.78;;;19.58;63.84
49072;BME280;52656;52.610;10.236;2023-06-22T01:52:17;101380.63;;;19.46;64.51
49072;BME280;52656;52.610;10.236;2023-06-22T01:54:42;101378.47;;;19.51;63.86
49072;BME280;52656;52.610;10.236;2023-06-22T01:57:08;101391.44;;;19.32;65.01
49072;BME280;52656;52.610;10.236;2023-06-22T01:59:59;101390.31;;;19.49;63.85
49072;BME280;52656;52.610;10.236;2023-06-22T02:02:28;101387.28;;;19.41;64.03
49072;BME280;52656;52.610;10.236;2023-06-22T02:05:21;101392.75;;;19.39;64.97
49072;BME280;52656;52.610;10.236;2023-06-22T02:08:02;101393.31;;;19.44;63.79
49072;BME280;52656;52.610;10.236;2023-06-22T02:10:29;101396.84;;;19.45;63.62
49072;BME280;52656;52.610;10.236;2023-06-22T02:12:57;101394.47;;;19.40;63.72
49072;BME280;52656;52.610;10.236;2023-06-22T02:15:24;101390.94;;;19.40;63.70
49072;BME280;52656;52.610;10.236;2023-06-22T02:17:50;101387.03;;;19.31;64.29
49072;BME280;52656;52.610;10.236;2023-06-22T02:20:16;101388.03;;;19.28;64.38
49072;BME280;52656;52.610;10.236;2023-06-22T02:22:41;101384.38;;;19.29;64.33
49072;BME280;52656;52.610;10.236;2023-06-22T02:25:07;101383.53;;;19.29;63.79
49072;BME280;52656;52.610;10.236;2023-06-22T02:27:32;101379.13;;;19.28;63.94
49072;BME280;52656;52.610;10.236;2023-06-22T02:29:58;101382.56;;;19.30;63.75
49072;BME280;52656;52.610;10.236;2023-06-22T02:32:23;101390.72;;;19.28;63.82
49072;BME280;52656;52.610;10.236;2023-06-22T02:34:48;101397.81;;;19.29;63.59
49072;BME280;52656;52.610;10.236;2023-06-22T02:37:14;101401.47;;;19.28;63.49
49072;BME280;52656;52.610;10.236;2023-06-22T02:39:42;101395.94;;;19.32;63.35
49072;BME280;52656;52.610;10.236;2023-06-22T02:42:07;101396.00;;;19.30;63.50
49072;BME280;52656;52.610;10.236;2023-06-22T02:44:33;101397.25;;;19.24;63.83
49072;BME280;52656;52.610;10.236;2023-06-22T02:46:58;101404.97;;;19.16;64.39
49072;BME280;52656;52.610;10.236;2023-06-22T02:49:24;101402.63;;;19.24;63.93
49072;BME280;52656;52.610;10.236;2023-06-22T02:51:49;101410.03;;;19.21;63.94
49072;BME280;52656;52.610;10.236;2023-06-22T02:54:15;101406.41;;;19.22;63.75
49072;BME280;52656;52.610;10.236;2023-06-22T02:56:40;101410.81;;;19.23;63.76
49072;BME280;52656;52.610;10.236;2023-06-22T02:59:15;101419.63;;;19.25;63.46
49072;BME280;52656;52.610;10.236;2023-06-22T03:01:41;101410.81;;;19.23;63.66
49072;BME280;52656;52.610;10.236;2023-06-22T03:04:07;101423.56;;;19.19;63.85
49072;BME280;52656;52.610;10.236;2023-06-22T03:06:33;101424.97;;;19.25;63.33
49072;BME280;52656;52.610;10.236;2023-06-22T03:09:03;101430.34;;;19.25;63.50
49072;BME280;52656;52.610;10.236;2023-06-22T03:11:33;101440.34;;;19.23;63.45
49072;BME280;52656;52.610;10.236;2023-06-22T03:14:00;101437.38;;;19.27;63.04
49072;BME280;52656;52.610;10.236;2023-06-22T03:16:25;101433.56;;;19.32;62.95
49072;BME280;52656;52.610;10.236;2023-06-22T03:18:50;101440.16;;;19.40;62.51
49072;BME280;52656;52.610;10.236;2023-06-22T03:21:16;101448.97;;;19.42;63.05
49072;BME280;52656;52.610;10.236;2023-06-22T03:23:42;101449.63;;;19.46;62.04
49072;BME280;52656;52.610;10.236;2023-06-22T03:26:09;101451.81;;;19.53;61.82
49072;BME280;52656;52.610;10.236;2023-06-22T03:28:34;101445.81;;;19.63;61.76
49072;BME280;52656;52.610;10.236;2023-06-22T03:30:59;101452.63;;;19.68;61.80
49072;BME280;52656;52.610;10.236;2023-06-22T03:33:25;101454.88;;;19.74;61.62
49072;BME280;52656;52.610;10.236;2023-06-22T03:35:50;101450.72;;;19.83;61.33
49072;BME280;52656;52.610;10.236;2023-06-22T03:38:16;101454.59;;;19.92;60.90
49072;BME280;52656;52.610;10.236;2023-06-22T03:40:42;101452.47;;;19.97;60.49
49072;BME280;52656;52.610;10.236;2023-06-22T03:43:07;101459.69;;;20.09;60.42
49072;BME280;52656;52.610;10.236;2023-06-22T03:45:32;101460.63;;;20.22;59.85
49072;BME280;52656;52.610;10.236;2023-06-22T03:47:58;101464.50;;;20.31;59.55
49072;BME280;52656;52.610;10.236;2023-06-22T03:50:23;101466.75;;;20.37;59.10
49072;BME280;52656;52.610;10.236;2023-06-22T03:52:48;101469.44;;;20.37;59.12
49072;BME280;52656;52.610;10.236;2023-06-22T03:55:13;101464.81;;;20.52;58.84
49072;BME280;52656;52.610;10.236;2023-06-22T03:57:39;101460.31;;;20.40;59.40
49072;BME280;52656;52.610;10.236;2023-06-22T04:00:05;101462.03;;;20.53;58.73
49072;BME280;52656;52.610;10.236;2023-06-22T04:02:33;101461.91;;;20.55;58.82
49072;BME280;52656;52.610;10.236;2023-06-22T04:04:58;101467.41;;;20.41;59.65
49072;BME280;52656;52.610;10.236;2023-06-22T04:07:23;101456.84;;;20.63;58.67
49072;BME280;52656;52.610;10.236;2023-06-22T04:09:49;101456.09;;;20.74;58.28
49072;BME280;52656;52.610;10.236;2023-06-22T04:12:14;101453.06;;;21.04;57.15
49072;BME280;52656;52.610;10.236;2023-06-22T04:14:40;101457.53;;;21.16;56.65
49072;BME280;52656;52.610;10.236;2023-06-22T04:17:05;101452.19;;;21.40;55.83
49072;BME280;52656;52.610;10.236;2023-06-22T04:19:30;101445.88;;;21.52;55.33
49072;BME280;52656;52.610;10.236;2023-06-22T04:21:56;101452.50;;;21.72;54.41
49072;BME280;52656;52.610;10.236;2023-06-22T04:24:21;101447.19;;;22.30;52.92
49072;BME280;52656;52.610;10.236;2023-06-22T04:26:46;101441.22;;;22.60;52.02
49072;BME280;52656;52.610;10.236;2023-06-22T04:29:13;101445.38;;;22.87;50.87
49072;BME280;52656;52.610;10.236;2023-06-22T04:31:38;101447.44;;;23.39;49.82
49072;BME280;52656;52.610;10.236;2023-06-22T04:34:05;101443.75;;;24.25;46.87
49072;BME280;52656;52.610;10.236;2023-06-22T04:36:38;101436.88;;;25.73;44.16
49072;BME280;52656;52.610;10.236;2023-06-22T04:39:10;101432.69;;;25.69;43.77
49072;BME280;52656;52.610;10.236;2023-06-22T04:41:39;101428.84;;;25.62;44.78
49072;BME280;52656;52.610;10.236;2023-06-22T04:44:12;101429.09;;;25.29;44.92
49072;BME280;52656;52.610;10.236;2023-06-22T04:46:37;101429.84;;;25.01;45.71
49072;BME280;52656;52.610;10.236;2023-06-22T04:49:09;101424.22;;;24.83;45.94
49072;BME280;52656;52.610;10.236;2023-06-22T04:51:41;101424.09;;;23.27;48.77
49072;BME280;52656;52.610;10.236;2023-06-22T04:54:07;101428.81;;;23.14;49.72
49072;BME280;52656;52.610;10.236;2023-06-22T04:56:33;101432.59;;;22.89;50.75
49072;BME280;52656;52.610;10.236;2023-06-22T04:58:59;101432.22;;;23.27;49.44
49072;BME280;52656;52.610;10.236;2023-06-22T05:01:24;101434.75;;;23.83;48.14
49072;BME280;52656;52.610;10.236;2023-06-22T05:03:50;101426.84;;;25.64;43.91
49072;BME280;52656;52.610;10.236;2023-06-22T05:06:23;101426.41;;;27.46;40.96
49072;BME280;52656;52.610;10.236;2023-06-22T05:08:56;101431.84;;;29.12;37.41
49072;BME280;52656;52.610;10.236;2023-06-22T05:11:27;101437.38;;;28.08;38.98
49072;BME280;52656;52.610;10.236;2023-06-22T05:13:53;101433.75;;;27.81;39.43
49072;BME280;52656;52.610;10.236;2023-06-22T05:16:19;101430.94;;;28.69;38.45
49072;BME280;52656;52.610;10.236;2023-06-22T05:18:49;101425.75;;;28.50;38.71
49072;BME280;52656;52.610;10.236;2023-06-22T05:21:15;101434.38;;;27.75;40.04
49072;BME280;52656;52.610;10.236;2023-06-22T05:23:40;101428.88;;;28.89;38.34
49072;BME280;52656;52.610;10.236;2023-06-22T05:26:05;101424.13;;;30.15;35.11
49072;BME280;52656;52.610;10.236;2023-06-22T05:28:34;101422.88;;;30.58;34.79
49072;BME280;52656;52.610;10.236;2023-06-22T05:30:59;101425.41;;;30.60;34.74
49072;BME280;52656;52.610;10.236;2023-06-22T05:33:25;101422.53;;;30.62;34.11
49072;BME280;52656;52.610;10.236;2023-06-22T05:35:50;101423.97;;;30.17;34.57
49072;BME280;52656;52.610;10.236;2023-06-22T05:38:15;101422.75;;;30.11;35.13
49072;BME280;52656;52.610;10.236;2023-06-22T05:40:41;101409.38;;;31.04;32.97
49072;BME280;52656;52.610;10.236;2023-06-22T05:43:06;101417.03;;;28.72;36.72
49072;BME280;52656;52.610;10.236;2023-06-22T05:45:31;101411.22;;;30.65;34.55
49072;BME280;52656;52.610;10.236;2023-06-22T05:47:56;101404.31;;;31.70;33.05
49072;BME280;52656;52.610;10.236;2023-06-22T05:50:22;101400.84;;;32.88;31.24
49072;BME280;52656;52.610;10.236;2023-06-22T05:52:47;101403.09;;;32.11;31.93
49072;BME280;52656;52.610;10.236;2023-06-22T05:55:12;101396.97;;;32.08;31.96
49072;BME280;52656;52.610;10.236;2023-06-22T05:57:38;101399.22;;;32.05;32.21
49072;BME280;52656;52.610;10.236;2023-06-22T06:00:03;101400.97;;;31.60;33.16
49072;BME280;52656;52.610;10.236;2023-06-22T06:02:32;101399.44;;;29.84;35.34
49072;BME280;52656;52.610;10.236;2023-06-22T06:04:58;101398.63;;;28.74;37.54
49072;BME280;52656;52.610;10.236;2023-06-22T06:07:24;101403.97;;;29.51;36.95
49072;BME280;52656;52.610;10.236;2023-06-22T06:09:49;101404.66;;;29.53;37.17
49072;BME280;52656;52.610;10.236;2023-06-22T06:12:14;101411.66;;;30.37;35.77
49072;BME280;52656;52.610;10.236;2023-06-22T06:14:40;101406.34;;;31.53;34.05
49072;BME280;52656;52.610;10.236;2023-06-22T06:17:05;101400.56;;;31.71;33.83
49072;BME280;52656;52.610;10.236;2023-06-22T06:19:30;101408.31;;;31.82;33.28
49072;BME280;52656;52.610;10.236;2023-06-22T06:21:56;101405.16;;;32.76;32.60
49072;BME280;52656;52.610;10.236;2023-06-22T06:24:21;101397.13;;;33.47;31.71
49072;BME280;52656;52.610;10.236;2023-06-22T06:26:46;101403.72;;;32.36;32.24
49072;BME280;52656;52.610;10.236;2023-06-22T06:29:12;101394.63;;;32.94;31.42
49072;BME280;52656;52.610;10.236;2023-06-22T06:31:37;101400.25;;;33.22;31.38
49072;BME280;52656;52.610;10.236;2023-06-22T06:34:03;101396.59;;;34.01;29.19
49072;BME280;52656;52.610;10.236;2023-06-22T06:36:28;101397.59;;;34.56;29.43
49072;BME280;52656;52.610;10.236;2023-06-22T06:38:53;101391.44;;;36.88;26.33
49072;BME280;52656;52.610;10.236;2023-06-22T06:41:19;101391.41;;;36.10;26.58
49072;BME280;52656;52.610;10.236;2023-06-22T06:43:44;101388.22;;;37.92;25.25
49072;BME280;52656;52.610;10.236;2023-06-22T06:46:10;101402.00;;;35.40;27.20
49072;BME280;52656;52.610;10.236;2023-06-22T06:48:35;101393.31;;;35.82;27.38
49072;BME280;52656;52.610;10.236;2023-06-22T06:51:00;101389.50;;;36.17;27.60
49072;BME280;52656;52.610;10.236;2023-06-22T06:53:26;101387.03;;;34.53;29.34
49072;BME280;52656;52.610;10.236;2023-06-22T06:55:52;101371.16;;;37.95;25.38
49072;BME280;52656;52.610;10.236;2023-06-22T06:58:17;101385.88;;;35.70;27.22
49072;BME280;52656;52.610;10.236;2023-06-22T07:00:42;101373.94;;;34.62;29.02
49072;BME280;52656;52.610;10.236;2023-06-22T07:03:08;101379.72;;;36.27;27.00
49072;BME280;52656;52.610;10.236;2023-06-22T07:05:34;101375.97;;;35.89;27.41
49072;BME280;52656;52.610;10.236;2023-06-22T07:08:00;101373.38;;;37.87;25.50
49072;BME280;52656;52.610;10.236;2023-06-22T07:10:26;101377.28;;;36.64;26.62
49072;BME280;52656;52.610;10.236;2023-06-22T07:12:51;101381.72;;;37.23;25.78
49072;BME280;52656;52.610;10.236;2023-06-22T07:15:16;101379.34;;;36.04;27.76
49072;BME280;52656;52.610;10.236;2023-06-22T07:17:42;101377.06;;;38.42;24.92
49072;BME280;52656;52.610;10.236;2023-06-22T07:20:07;101383.69;;;37.10;25.28
49072;BME280;52656;52.610;10.236;2023-06-22T07:22:42;101367.78;;;39.87;23.38
49072;BME280;52656;52.610;10.236;2023-06-22T07:25:08;101369.84;;;40.39;22.76
49072;BME280;52656;52.610;10.236;2023-06-22T07:27:43;101368.88;;;37.36;25.12
49072;BME280;52656;52.610;10.236;2023-06-22T07:30:09;101359.63;;;34.86;28.89
49072;BME280;52656;52.610;10.236;2023-06-22T07:32:34;101373.31;;;37.05;25.60
49072;BME280;52656;52.610;10.236;2023-06-22T07:35:00;101361.50;;;38.48;24.50
49072;BME280;52656;52.610;10.236;2023-06-22T07:37:26;101372.25;;;38.56;24.53
49072;BME280;52656;52.610;10.236;2023-06-22T07:39:52;101368.63;;;40.87;22.44
49072;BME280;52656;52.610;10.236;2023-06-22T07:42:19;101363.16;;;39.69;23.54
49072;BME280;52656;52.610;10.236;2023-06-22T07:44:44;101368.03;;;38.72;24.43
49072;BME280;52656;52.610;10.236;2023-06-22T07:47:09;101369.78;;;39.45;23.65
49072;BME280;52656;52.610;10.236;2023-06-22T07:49:35;101360.69;;;39.91;23.51
49072;BME280;52656;52.610;10.236;2023-06-22T07:52:00;101359.75;;;40.73;22.69
49072;BME280;52656;52.610;10.236;2023-06-22T07:54:27;101364.97;;;41.77;21.40
49072;BME280;52656;52.610;10.236;2023-06-22T07:56:52;101360.41;;;42.04;21.13
49072;BME280;52656;52.610;10.236;2023-06-22T07:59:17;101361.16;;;40.23;22.80
49072;BME280;52656;52.610;10.236;2023-06-22T08:01:43;101359.50;;;42.38;21.36
49072;BME280;52656;52.610;10.236;2023-06-22T08:04:08;101362.75;;;39.84;22.99
49072;BME280;52656;52.610;10.236;2023-06-22T08:06:33;101356.38;;;40.71;22.53
49072;BME280;52656;52.610;10.236;2023-06-22T08:08:59;101360.81;;;38.34;24.12
49072;BME280;52656;52.610;10.236;2023-06-22T08:11:24;101361.53;;;40.27;22.48
49072;BME280;52656;52.610;10.236;2023-06-22T08:13:50;101353.75;;;39.47;23.56
49072;BME280;52656;52.610;10.236;2023-06-22T08:16:16;101351.81;;;38.57;23.76
49072;BME280;52656;52.610;10.236;2023-06-22T08:18:41;101352.13;;;40.04;22.63
49072;BME280;52656;52.610;10.236;2023-06-22T08:21:06;101339.72;;;41.45;21.75
49072;BME280;52656;52.610;10.236;2023-06-22T08:23:32;101343.00;;;42.14;20.76
49072;BME280;52656;52.610;10.236;2023-06-22T08:25:57;101340.16;;;40.16;22.90
49072;BME280;52656;52.610;10.236;2023-06-22T08:28:22;101340.16;;;40.39;22.14
49072;BME280;52656;52.610;10.236;2023-06-22T08:30:48;101342.53;;;37.65;25.33
49072;BME280;52656;52.610;10.236;2023-06-22T08:33:13;101337.13;;;37.13;25.92
49072;BME280;52656;52.610;10.236;2023-06-22T08:35:38;101344.31;;;38.76;23.49
49072;BME280;52656;52.610;10.236;2023-06-22T08:38:04;101342.00;;;39.98;22.56
49072;BME280;52656;52.610;10.236;2023-06-22T08:40:29;101348.81;;;38.59;24.61
49072;BME280;52656;52.610;10.236;2023-06-22T08:42:55;101351.53;;;37.78;25.12
49072;BME280;52656;52.610;10.236;2023-06-22T08:45:20;101351.31;;;36.20;27.62
49072;BME280;52656;52.610;10.236;2023-06-22T08:47:46;101340.63;;;37.02;26.85
49072;BME280;52656;52.610;10.236;2023-06-22T08:50:11;101355.59;;;35.96;27.46
49072;BME280;52656;52.610;10.236;2023-06-22T08:52:38;101342.13;;;36.53;26.98
49072;BME280;52656;52.610;10.236;2023-06-22T08:55:06;101334.75;;;36.85;26.94
49072;BME280;52656;52.610;10.236;2023-06-22T08:57:32;101339.91;;;37.13;26.63
49072;BME280;52656;52.610;10.236;2023-06-22T08:59:58;101341.81;;;36.68;27.29
49072;BME280;52656;52.610;10.236;2023-06-22T09:02:27;101342.81;;;35.16;29.20
49072;BME280;52656;52.610;10.236;2023-06-22T09:04:56;101330.88;;;36.48;27.59
49072;BME280;52656;52.610;10.236;2023-06-22T09:07:22;101329.56;;;38.64;25.24
49072;BME280;52656;52.610;10.236;2023-06-22T09:09:49;101332.25;;;39.84;23.81
49072;BME280;52656;52.610;10.236;2023-06-22T09:12:14;101332.59;;;37.82;26.57
49072;BME280;52656;52.610;10.236;2023-06-22T09:14:40;101324.06;;;37.58;26.42
49072;BME280;52656;52.610;10.236;2023-06-22T09:17:05;101315.59;;;38.22;26.06
49072;BME280;52656;52.610;10.236;2023-06-22T09:19:30;101313.13;;;38.32;25.61
49072;BME280;52656;52.610;10.236;2023-06-22T09:21:56;101317.78;;;37.45;26.22
49072;BME280;52656;52.610;10.236;2023-06-22T09:24:21;101305.22;;;36.27;27.51
49072;BME280;52656;52.610;10.236;2023-06-22T09:26:47;101305.72;;;36.76;27.35
49072;BME280;52656;52.610;10.236;2023-06-22T09:29:12;101295.78;;;39.45;24.86
49072;BME280;52656;52.610;10.236;2023-06-22T09:31:37;101303.66;;;35.93;28.88
49072;BME280;52656;52.610;10.236;2023-06-22T09:34:03;101297.75;;;35.56;29.20
49072;BME280;52656;52.610;10.236;2023-06-22T09:36:28;101289.66;;;35.35;29.59
49072;BME280;52656;52.610;10.236;2023-06-22T09:38:53;101292.81;;;35.25;29.85
49072;BME280;52656;52.610;10.236;2023-06-22T09:41:24;101290.88;;;36.12;28.80
49072;BME280;52656;52.610;10.236;2023-06-22T09:43:49;101285.91;;;36.86;27.86
49072;BME280;52656;52.610;10.236;2023-06-22T09:46:15;101285.16;;;36.00;29.21
49072;BME280;52656;52.610;10.236;2023-06-22T09:48:41;101296.41;;;35.19;30.06
49072;BME280;52656;52.610;10.236;2023-06-22T09:51:06;101282.13;;;36.15;28.36
49072;BME280;52656;52.610;10.236;2023-06-22T09:53:31;101285.59;;;36.04;28.57
49072;BME280;52656;52.610;10.236;2023-06-22T09:55:57;101282.41;;;35.01;29.75
49072;BME280;52656;52.610;10.236;2023-06-22T09:58:23;101280.56;;;35.48;29.40
49072;BME280;52656;52.610;10.236;2023-06-22T10:00:48;101280.50;;;34.40;30.72
49072;BME280;52656;52.610;10.236;2023-06-22T10:03:13;101275.34;;;34.72;30.54
49072;BME280;52656;52.610;10.236;2023-06-22T10:05:38;101265.84;;;34.33;31.26
49072;BME280;52656;52.610;10.236;2023-06-22T10:08:04;101278.66;;;34.54;30.80
49072;BME280;52656;52.610;10.236;2023-06-22T10:10:29;101270.03;;;34.16;31.48
49072;BME280;52656;52.610;10.236;2023-06-22T10:12:56;101272.50;;;34.11;31.23
49072;BME280;52656;52.610;10.236;2023-06-22T10:15:22;101271.94;;;34.63;30.55
49072;BME280;52656;52.610;10.236;2023-06-22T10:17:48;101268.06;;;35.52;29.08
49072;BME280;52656;52.610;10.236;2023-06-22T10:20:13;101265.88;;;36.00;29.06
49072;BME280;52656;52.610;10.236;2023-06-22T10:22:41;101272.25;;;34.95;30.03
49072;BME280;52656;52.610;10.236;2023-06-22T10:25:07;101269.94;;;33.74;32.01
49072;BME280;52656;52.610;10.236;2023-06-22T10:27:33;101264.41;;;32.46;33.99
49072;BME280;52656;52.610;10.236;2023-06-22T10:29:58;101269.16;;;33.31;32.86
49072;BME280;52656;52.610;10.236;2023-06-22T10:32:23;101269.38;;;32.50;34.60
49072;BME280;52656;52.610;10.236;2023-06-22T10:34:48;101265.13;;;32.48;34.38
49072;BME280;52656;52.610;10.236;2023-06-22T10:37:14;101267.22;;;32.16;34.75
49072;BME280;52656;52.610;10.236;2023-06-22T10:39:39;101274.63;;;31.48;36.22
49072;BME280;52656;52.610;10.236;2023-06-22T10:42:05;101262.13;;;32.13;35.32
49072;BME280;52656;52.610;10.236;2023-06-22T10:44:30;101265.31;;;32.02;35.21
49072;BME280;52656;52.610;10.236;2023-06-22T10:46:55;101270.63;;;32.18;34.65
49072;BME280;52656;52.610;10.236;2023-06-22T10:49:21;101264.47;;;32.31;34.76
49072;BME280;52656;52.610;10.236;2023-06-22T10:51:46;101254.59;;;32.37;35.03
49072;BME280;52656;52.610;10.236;2023-06-22T10:54:11;101257.56;;;32.05;34.59
49072;BME280;52656;52.610;10.236;2023-06-22T10:56:39;101252.69;;;32.88;33.63
49072;BME280;52656;52.610;10.236;2023-06-22T10:59:04;101259.25;;;33.30;32.89
49072;BME280;52656;52.610;10.236;2023-06-22T11:01:30;101255.72;;;33.15;33.07
49072;BME280;52656;52.610;10.236;2023-06-22T11:03:56;101249.50;;;33.06;33.36
49072;BME280;52656;52.610;10.236;2023-06-22T11:06:22;101247.59;;;33.28;32.48
49072;BME280;52656;52.610;10.236;2023-06-22T11:08:47;101248.66;;;32.84;33.44
49072;BME280;52656;52.610;10.236;2023-06-22T11:11:12;101237.06;;;33.31;32.98
49072;BME280;52656;52.610;10.236;2023-06-22T11:13:37;101230.41;;;33.19;33.34
49072;BME280;52656;52.610;10.236;2023-06-22T11:16:03;101227.66;;;33.19;33.34
49072;BME280;52656;52.610;10.236;2023-06-22T11:18:28;101233.19;;;32.25;34.40
49072;BME280;52656;52.610;10.236;2023-06-22T11:20:54;101232.16;;;32.12;34.92
49072;BME280;52656;52.610;10.236;2023-06-22T11:23:19;101230.31;;;32.70;34.09
49072;BME280;52656;52.610;10.236;2023-06-22T11:25:44;101224.25;;;32.96;33.96
49072;BME280;52656;52.610;10.236;2023-06-22T11:28:11;101209.97;;;33.22;33.62
49072;BME280;52656;52.610;10.236;2023-06-22T11:30:36;101205.72;;;33.47;32.79
49072;BME280;52656;52.610;10.236;2023-06-22T11:33:02;101205.25;;;32.94;33.94
49072;BME280;52656;52.610;10.236;2023-06-22T11:35:27;101200.59;;;32.01;35.45
49072;BME280;52656;52.610;10.236;2023-06-22T11:37:52;101200.03;;;31.91;35.59
49072;BME280;52656;52.610;10.236;2023-06-22T11:40:18;101201.88;;;32.20;35.17
49072;BME280;52656;52.610;10.236;2023-06-22T11:42:43;101192.66;;;32.42;35.11
49072;BME280;52656;52.610;10.236;2023-06-22T11:45:09;101188.75;;;32.30;35.23
49072;BME280;52656;52.610;10.236;2023-06-22T11:47:34;101191.75;;;32.35;34.84
49072;BME280;52656;52.610;10.236;2023-06-22T11:50:00;101190.91;;;32.71;34.53
49072;BME280;52656;52.610;10.236;2023-06-22T11:52:25;101190.09;;;32.55;34.74
49072;BME280;52656;52.610;10.236;2023-06-22T11:54:52;101188.16;;;32.71;34.27
49072;BME280;52656;52.610;10.236;2023-06-22T11:57:17;101190.63;;;33.08;34.03
49072;BME280;52656;52.610;10.236;2023-06-22T11:59:43;101191.84;;;33.27;33.59
49072;BME280;52656;52.610;10.236;2023-06-22T12:02:08;101190.69;;;32.72;34.15
49072;BME280;52656;52.610;10.236;2023-06-22T12:04:34;101186.31;;;33.21;33.11
49072;BME280;52656;52.610;10.236;2023-06-22T12:07:00;101175.06;;;33.16;33.44
49072;BME280;52656;52.610;10.236;2023-06-22T12:09:25;101161.06;;;32.25;35.36
49072;BME280;52656;52.610;10.236;2023-06-22T12:11:50;101160.22;;;33.10;34.02
49072;BME280;52656;52.610;10.236;2023-06-22T12:14:15;101149.22;;;33.38;33.08
49072;BME280;52656;52.610;10.236;2023-06-22T12:16:41;101150.91;;;34.08;32.46
49072;BME280;52656;52.610;10.236;2023-06-22T12:19:06;101147.06;;;34.84;31.18
49072;BME280;52656;52.610;10.236;2023-06-22T12:21:31;101162.44;;;34.39;31.53
49072;BME280;52656;52.610;10.236;2023-06-22T12:23:57;101141.44;;;34.24;31.97
49072;BME280;52656;52.610;10.236;2023-06-22T12:26:22;101138.47;;;32.23;35.69
49072;BME280;52656;52.610;10.236;2023-06-22T12:28:48;101130.25;;;33.78;32.97
49072;BME280;52656;52.610;10.236;2023-06-22T12:31:14;101131.31;;;32.86;33.57
49072;BME280;52656;52.610;10.236;2023-06-22T12:33:39;101126.88;;;31.91;35.93
49072;BME280;52656;52.610;10.236;2023-06-22T12:36:05;101122.91;;;32.08;35.82